sensor_id;sensor_type;location;lat;lon;timestamp;P1;durP1;ratioP1;P2;durP2;ratioP2
31994;SDS011;51311;50.870;7.048;2022-08-01T00:00:51;0.20;;;0.20;;
31994;SDS011;51311;50.870;7.048;2022-08-01T00:04:53;0.60;;;0.20;;
31994;SDS011;51311;50.870;7.048;2022-08-01T00:08:51;0.40;;;0.20;;
31994;SDS011;51311;50.870;7.048;2022-08-01T00:12:52;0.20;;;0.10;;
31994;SDS011;51311;50.870;7.048;2022-08-01T00:16:52;0.30;;;0.20;;
31994;SDS011;51311;50.870;7.048;2022-08-01T00:20:52;0.40;;;0.20;;
31994;SDS011;51311;50.870;7.048;2022-08-01T00:24:52;0.40;;;0.20;;
31994;SDS011;51311;50.870;7.048;2022-08-01T00:28:52;0.70;;;0.20;;
31994;SDS011;51311;50.870;7.048;2022-08-01T00:32:52;0.20;;;0.20;;
31994;SDS011;51311;50.870;7.048;2022-08-01T00:36:53;0.20;;;0.20;;
31994;SDS011;51311;50.870;7.048;2022-08-01T00:40:53;0.30;;;0.20;;
31994;SDS011;51311;50.870;7.048;2022-08-01T00:44:53;0.50;;;0.20;;
31994;SDS011;51311;50.870;7.048;2022-08-01T00:52:53;0.30;;;0.20;;
31994;SDS011;51311;50.870;7.048;2022-08-01T00:56:54;0.30;;;0.10;;
31994;SDS011;51311;50.870;7.048;2022-08-01T01:00:54;0.10;;;0.10;;
31994;SDS011;51311;50.870;7.048;2022-08-01T01:04:54;0.20;;;0.10;;
31994;SDS011;51311;50.870;7.048;2022-08-01T01:08:58;0.10;;;0.10;;
31994;SDS011;51311;50.870;7.048;2022-08-01T01:12:55;0.40;;;0.40;;
31994;SDS011;51311;50.870;7.048;2022-08-01T01:16:54;0.50;;;0.30;;
31994;SDS011;51311;50.870;7.048;2022-08-01T01:20:58;0.60;;;0.20;;
31994;SDS011;51311;50.870;7.048;2022-08-01T01:24:58;0.20;;;0.10;;
31994;SDS011;51311;50.870;7.048;2022-08-01T01:28:58;0.20;;;0.20;;
31994;SDS011;51311;50.870;7.048;2022-08-01T01:32:55;0.30;;;0.20;;
31994;SDS011;51311;50.870;7.048;2022-08-01T01:36:55;0.40;;;0.10;;
31994;SDS011;51311;50.870;7.048;2022-08-01T01:40:55;0.30;;;0.20;;
31994;SDS011;51311;50.870;7.048;2022-08-01T01:44:55;0.30;;;0.20;;
31994;SDS011;51311;50.870;7.048;2022-08-01T01:48:55;0.20;;;0.10;;
31994;SDS011;51311;50.870;7.048;2022-08-01T01:52:56;0.40;;;0.20;;
31994;SDS011;51311;50.870;7.048;2022-08-01T01:56:56;0.20;;;0.20;;
31994;SDS011;51311;50.870;7.048;2022-08-01T02:00:56;0.20;;;0.20;;
31994;SDS011;51311;50.870;7.048;2022-08-01T02:04:56;0.20;;;0.20;;
31994;SDS011;51311;50.870;7.048;2022-08-01T02:08:56;0.40;;;0.10;;
31994;SDS011;51311;50.870;7.048;2022-08-01T02:12:57;0.20;;;0.20;;
31994;SDS011;51311;50.870;7.048;2022-08-01T02:16:57;0.20;;;0.20;;
31994;SDS011;51311;50.870;7.048;2022-08-01T02:20:57;0.40;;;0.10;;
31994;SDS011;51311;50.870;7.048;2022-08-01T02:24:59;0.20;;;0.20;;
31994;SDS011;51311;50.870;7.048;2022-08-01T02:28:59;0.30;;;0.20;;
31994;SDS011;51311;50.870;7.048;2022-08-01T02:32:59;0.40;;;0.30;;
31994;SDS011;51311;50.870;7.048;2022-08-01T02:36:58;0.20;;;0.20;;
31994;SDS011;51311;50.870;7.048;2022-08-01T02:40:58;0.20;;;0.10;;
31994;SDS011;51311;50.870;7.048;2022-08-01T02:44:58;0.20;;;0.20;;
31994;SDS011;51311;50.870;7.048;2022-08-01T02:48:58;0.50;;;0.20;;
31994;SDS011;51311;50.870;7.048;2022-08-01T02:52:58;0.30;;;0.20;;
31994;SDS011;51311;50.870;7.048;2022-08-01T02:56:58;0.20;;;0.10;;
31994;SDS011;51311;50.870;7.048;2022-08-01T03:00:58;0.10;;;0.10;;
31994;SDS011;51311;50.870;7.048;2022-08-01T03:04:59;0.20;;;0.20;;
31994;SDS011;51311;50.870;7.048;2022-08-01T03:09:00;0.20;;;0.10;;
31994;SDS011;51311;50.870;7.048;2022-08-01T03:12:59;0.30;;;0.20;;
31994;SDS011;51311;50.870;7.048;2022-08-01T03:16:59;0.20;;;0.10;;
31994;SDS011;51311;50.870;7.048;2022-08-01T03:20:59;0.30;;;0.10;;
31994;SDS011;51311;50.870;7.048;2022-08-01T03:24:59;0.40;;;0.30;;
31994;SDS011;51311;50.870;7.048;2022-08-01T03:29:02;0.40;;;0.20;;
31994;SDS011;51311;50.870;7.048;2022-08-01T03:33:00;0.20;;;0.10;;
31994;SDS011;51311;50.870;7.048;2022-08-01T03:37:05;0.10;;;0.10;;
31994;SDS011;51311;50.870;7.048;2022-08-01T03:41:02;0.10;;;0.10;;
31994;SDS011;51311;50.870;7.048;2022-08-01T03:45:02;0.40;;;0.20;;
31994;SDS011;51311;50.870;7.048;2022-08-01T03:49:02;0.40;;;0.30;;
31994;SDS011;51311;50.870;7.048;2022-08-01T03:53:01;0.40;;;0.30;;
31994;SDS011;51311;50.870;7.048;2022-08-01T03:57:01;0.20;;;0.10;;
31994;SDS011;51311;50.870;7.048;2022-08-01T04:01:01;0.30;;;0.20;;
31994;SDS011;51311;50.870;7.048;2022-08-01T04:05:01;0.30;;;0.20;;
31994;SDS011;51311;50.870;7.048;2022-08-01T04:09:01;0.50;;;0.20;;
31994;SDS011;51311;50.870;7.048;2022-08-01T04:13:01;0.20;;;0.20;;
31994;SDS011;51311;50.870;7.048;2022-08-01T04:17:01;0.30;;;0.10;;
31994;SDS011;51311;50.870;7.048;2022-08-01T04:21:02;0.20;;;0.20;;
31994;SDS011;51311;50.870;7.048;2022-08-01T04:25:03;0.60;;;0.30;;
31994;SDS011;51311;50.870;7.048;2022-08-01T04:29:02;0.20;;;0.20;;
31994;SDS011;51311;50.870;7.048;2022-08-01T04:33:03;0.20;;;0.20;;
31994;SDS011;51311;50.870;7.048;2022-08-01T04:37:02;0.30;;;0.20;;
31994;SDS011;51311;50.870;7.048;2022-08-01T04:41:03;0.30;;;0.20;;
31994;SDS011;51311;50.870;7.048;2022-08-01T04:49:04;0.30;;;0.20;;
31994;SDS011;51311;50.870;7.048;2022-08-01T04:53:03;0.50;;;0.20;;
31994;SDS011;51311;50.870;7.048;2022-08-01T04:57:03;0.80;;;0.30;;
31994;SDS011;51311;50.870;7.048;2022-08-01T05:01:03;0.30;;;0.10;;
31994;SDS011;51311;50.870;7.048;2022-08-01T05:05:03;0.20;;;0.10;;
31994;SDS011;51311;50.870;7.048;2022-08-01T05:09:03;0.20;;;0.20;;
31994;SDS011;51311;50.870;7.048;2022-08-01T05:13:04;0.30;;;0.20;;
31994;SDS011;51311;50.870;7.048;2022-08-01T05:17:05;0.20;;;0.10;;
31994;SDS011;51311;50.870;7.048;2022-08-01T05:21:04;0.50;;;0.30;;
31994;SDS011;51311;50.870;7.048;2022-08-01T05:25:04;0.10;;;0.10;;
31994;SDS011;51311;50.870;7.048;2022-08-01T05:29:04;0.20;;;0.20;;
31994;SDS011;51311;50.870;7.048;2022-08-01T05:33:04;0.60;;;0.20;;
31994;SDS011;51311;50.870;7.048;2022-08-01T05:37:05;0.50;;;0.30;;
31994;SDS011;51311;50.870;7.048;2022-08-01T05:41:05;0.60;;;0.30;;
31994;SDS011;51311;50.870;7.048;2022-08-01T05:45:05;0.30;;;0.20;;
31994;SDS011;51311;50.870;7.048;2022-08-01T05:49:05;0.50;;;0.30;;
31994;SDS011;51311;50.870;7.048;2022-08-01T05:53:05;0.90;;;0.40;;
31994;SDS011;51311;50.870;7.048;2022-08-01T05:57:05;0.40;;;0.20;;
31994;SDS011;51311;50.870;7.048;2022-08-01T06:01:06;0.20;;;0.20;;
31994;SDS011;51311;50.870;7.048;2022-08-01T06:05:06;0.50;;;0.20;;
31994;SDS011;51311;50.870;7.048;2022-08-01T06:09:06;0.30;;;0.30;;
31994;SDS011;51311;50.870;7.048;2022-08-01T06:13:06;0.50;;;0.20;;
31994;SDS011;51311;50.870;7.048;2022-08-01T06:17:06;0.30;;;0.20;;
31994;SDS011;51311;50.870;7.048;2022-08-01T06:21:06;0.40;;;0.30;;
31994;SDS011;51311;50.870;7.048;2022-08-01T06:25:07;0.70;;;0.30;;
31994;SDS011;51311;50.870;7.048;2022-08-01T06:29:07;1.50;;;0.40;;
31994;SDS011;51311;50.870;7.048;2022-08-01T06:33:07;0.50;;;0.30;;
31994;SDS011;51311;50.870;7.048;2022-08-01T06:37:07;1.10;;;0.50;;
31994;SDS011;51311;50.870;7.048;2022-08-01T06:41:07;0.70;;;0.30;;
31994;SDS011;51311;50.870;7.048;2022-08-01T06:45:08;0.60;;;0.30;;
31994;SDS011;51311;50.870;7.048;2022-08-01T06:49:08;0.60;;;0.40;;
31994;SDS011;51311;50.870;7.048;2022-08-01T06:53:08;1.00;;;0.40;;
31994;SDS011;51311;50.870;7.048;2022-08-01T06:57:08;0.50;;;0.30;;
31994;SDS011;51311;50.870;7.048;2022-08-01T07:01:08;0.40;;;0.30;;
31994;SDS011;51311;50.870;7.048;2022-08-01T07:05:08;0.60;;;0.40;;
31994;SDS011;51311;50.870;7.048;2022-08-01T07:09:08;0.40;;;0.30;;
31994;SDS011;51311;50.870;7.048;2022-08-01T07:13:09;0.50;;;0.30;;
31994;SDS011;51311;50.870;7.048;2022-08-01T07:17:09;1.50;;;0.50;;
31994;SDS011;51311;50.870;7.048;2022-08-01T07:21:09;1.20;;;0.50;;
31994;SDS011;51311;50.870;7.048;2022-08-01T07:25:09;0.40;;;0.30;;
31994;SDS011;51311;50.870;7.048;2022-08-01T07:29:09;1.20;;;0.50;;
31994;SDS011;51311;50.870;7.048;2022-08-01T07:33:09;0.80;;;0.30;;
31994;SDS011;51311;50.870;7.048;2022-08-01T07:37:09;0.90;;;0.40;;
31994;SDS011;51311;50.870;7.048;2022-08-01T07:41:10;0.70;;;0.40;;
31994;SDS011;51311;50.870;7.048;2022-08-01T07:45:10;0.80;;;0.40;;
31994;SDS011;51311;50.870;7.048;2022-08-01T07:49:10;0.80;;;0.50;;
31994;SDS011;51311;50.870;7.048;2022-08-01T07:53:10;1.40;;;0.50;;
31994;SDS011;51311;50.870;7.048;2022-08-01T07:57:10;0.90;;;0.50;;
31994;SDS011;51311;50.870;7.048;2022-08-01T08:01:10;0.70;;;0.40;;
31994;SDS011;51311;50.870;7.048;2022-08-01T08:05:11;0.90;;;0.50;;
31994;SDS011;51311;50.870;7.048;2022-08-01T08:09:11;0.80;;;0.40;;
31994;SDS011;51311;50.870;7.048;2022-08-01T08:13:11;0.80;;;0.40;;
31994;SDS011;51311;50.870;7.048;2022-08-01T08:17:11;1.10;;;0.50;;
31994;SDS011;51311;50.870;7.048;2022-08-01T08:21:11;1.00;;;0.30;;
31994;SDS011;51311;50.870;7.048;2022-08-01T08:25:11;1.10;;;0.60;;
31994;SDS011;51311;50.870;7.048;2022-08-01T08:29:12;1.30;;;0.70;;
31994;SDS011;51311;50.870;7.048;2022-08-01T08:33:12;0.90;;;0.50;;
31994;SDS011;51311;50.870;7.048;2022-08-01T08:37:12;0.70;;;0.40;;
31994;SDS011;51311;50.870;7.048;2022-08-01T08:41:12;1.00;;;0.40;;
31994;SDS011;51311;50.870;7.048;2022-08-01T08:45:12;0.50;;;0.30;;
31994;SDS011;51311;50.870;7.048;2022-08-01T08:49:15;0.80;;;0.50;;
31994;SDS011;51311;50.870;7.048;2022-08-01T08:53:13;0.80;;;0.40;;
31994;SDS011;51311;50.870;7.048;2022-08-01T08:57:13;1.10;;;0.60;;
31994;SDS011;51311;50.870;7.048;2022-08-01T09:01:13;0.80;;;0.50;;
31994;SDS011;51311;50.870;7.048;2022-08-01T09:05:13;1.00;;;0.60;;
31994;SDS011;51311;50.870;7.048;2022-08-01T09:09:13;1.30;;;0.60;;
31994;SDS011;51311;50.870;7.048;2022-08-01T09:13:14;1.30;;;0.50;;
31994;SDS011;51311;50.870;7.048;2022-08-01T09:17:14;0.70;;;0.40;;
31994;SDS011;51311;50.870;7.048;2022-08-01T09:21:16;1.40;;;0.70;;
31994;SDS011;51311;50.870;7.048;2022-08-01T09:25:14;0.80;;;0.50;;
31994;SDS011;51311;50.870;7.048;2022-08-01T09:29:18;0.60;;;0.50;;
31994;SDS011;51311;50.870;7.048;2022-08-01T09:33:14;0.70;;;0.50;;
31994;SDS011;51311;50.870;7.048;2022-08-01T09:37:14;0.50;;;0.40;;
31994;SDS011;51311;50.870;7.048;2022-08-01T09:41:15;0.80;;;0.50;;
31994;SDS011;51311;50.870;7.048;2022-08-01T09:45:34;1.10;;;0.60;;
31994;SDS011;51311;50.870;7.048;2022-08-01T09:49:15;1.00;;;0.60;;
31994;SDS011;51311;50.870;7.048;2022-08-01T09:53:15;1.10;;;0.60;;
31994;SDS011;51311;50.870;7.048;2022-08-01T09:57:16;0.60;;;0.50;;
31994;SDS011;51311;50.870;7.048;2022-08-01T10:01:15;0.90;;;0.70;;
31994;SDS011;51311;50.870;7.048;2022-08-01T10:05:15;0.90;;;0.60;;
31994;SDS011;51311;50.870;7.048;2022-08-01T10:13:16;1.30;;;0.60;;
31994;SDS011;51311;50.870;7.048;2022-08-01T10:17:17;0.70;;;0.40;;
31994;SDS011;51311;50.870;7.048;2022-08-01T10:21:16;1.20;;;0.70;;
31994;SDS011;51311;50.870;7.048;2022-08-01T10:25:16;1.20;;;0.50;;
31994;SDS011;51311;50.870;7.048;2022-08-01T10:29:16;0.80;;;0.60;;
31994;SDS011;51311;50.870;7.048;2022-08-01T10:33:17;0.50;;;0.30;;
31994;SDS011;51311;50.870;7.048;2022-08-01T10:37:17;1.40;;;0.70;;
31994;SDS011;51311;50.870;7.048;2022-08-01T10:41:17;0.70;;;0.50;;
31994;SDS011;51311;50.870;7.048;2022-08-01T10:45:17;1.10;;;0.60;;
31994;SDS011;51311;50.870;7.048;2022-08-01T10:49:17;0.80;;;0.60;;
31994;SDS011;51311;50.870;7.048;2022-08-01T10:53:18;1.00;;;0.60;;
31994;SDS011;51311;50.870;7.048;2022-08-01T10:57:18;0.70;;;0.40;;
31994;SDS011;51311;50.870;7.048;2022-08-01T11:01:19;0.60;;;0.40;;
31994;SDS011;51311;50.870;7.048;2022-08-01T11:05:20;0.80;;;0.50;;
31994;SDS011;51311;50.870;7.048;2022-08-01T11:13:35;0.80;;;0.50;;
31994;SDS011;51311;50.870;7.048;2022-08-01T11:17:45;0.80;;;0.60;;
31994;SDS011;51311;50.870;7.048;2022-08-01T11:21:20;1.20;;;0.70;;
31994;SDS011;51311;50.870;7.048;2022-08-01T11:25:20;0.60;;;0.50;;
31994;SDS011;51311;50.870;7.048;2022-08-01T11:29:20;0.90;;;0.60;;
31994;SDS011;51311;50.870;7.048;2022-08-01T11:37:23;0.80;;;0.60;;
31994;SDS011;51311;50.870;7.048;2022-08-01T11:41:22;0.80;;;0.50;;
31994;SDS011;51311;50.870;7.048;2022-08-01T11:45:21;0.80;;;0.60;;
31994;SDS011;51311;50.870;7.048;2022-08-01T11:49:22;1.50;;;0.60;;
31994;SDS011;51311;50.870;7.048;2022-08-01T11:53:21;0.60;;;0.50;;
31994;SDS011;51311;50.870;7.048;2022-08-01T11:57:23;1.30;;;0.50;;
31994;SDS011;51311;50.870;7.048;2022-08-01T12:01:22;1.30;;;0.70;;
31994;SDS011;51311;50.870;7.048;2022-08-01T12:05:22;1.50;;;0.70;;
31994;SDS011;51311;50.870;7.048;2022-08-01T12:09:22;0.90;;;0.50;;
31994;SDS011;51311;50.870;7.048;2022-08-01T12:13:22;1.20;;;0.60;;
31994;SDS011;51311;50.870;7.048;2022-08-01T12:17:29;0.80;;;0.50;;
31994;SDS011;51311;50.870;7.048;2022-08-01T12:21:22;0.80;;;0.50;;
31994;SDS011;51311;50.870;7.048;2022-08-01T12:25:23;1.50;;;0.90;;
31994;SDS011;51311;50.870;7.048;2022-08-01T12:29:37;0.80;;;0.40;;
31994;SDS011;51311;50.870;7.048;2022-08-01T12:33:23;1.20;;;0.60;;
31994;SDS011;51311;50.870;7.048;2022-08-01T12:37:23;0.70;;;0.40;;
31994;SDS011;51311;50.870;7.048;2022-08-01T12:41:23;0.80;;;0.40;;
31994;SDS011;51311;50.870;7.048;2022-08-01T12:45:24;1.20;;;0.60;;
31994;SDS011;51311;50.870;7.048;2022-08-01T12:49:24;0.80;;;0.60;;
31994;SDS011;51311;50.870;7.048;2022-08-01T12:53:24;1.10;;;0.70;;
31994;SDS011;51311;50.870;7.048;2022-08-01T12:57:24;0.60;;;0.30;;
31994;SDS011;51311;50.870;7.048;2022-08-01T13:01:25;1.30;;;0.50;;
31994;SDS011;51311;50.870;7.048;2022-08-01T13:05:24;0.60;;;0.40;;
31994;SDS011;51311;50.870;7.048;2022-08-01T13:09:24;0.90;;;0.60;;
31994;SDS011;51311;50.870;7.048;2022-08-01T13:13:26;0.70;;;0.50;;
31994;SDS011;51311;50.870;7.048;2022-08-01T13:17:32;1.10;;;0.60;;
31994;SDS011;51311;50.870;7.048;2022-08-01T13:21:26;0.70;;;0.50;;
31994;SDS011;51311;50.870;7.048;2022-08-01T13:25:25;1.30;;;0.80;;
31994;SDS011;51311;50.870;7.048;2022-08-01T13:29:29;0.80;;;0.50;;
31994;SDS011;51311;50.870;7.048;2022-08-01T13:33:26;1.00;;;0.50;;
31994;SDS011;51311;50.870;7.048;2022-08-01T13:37:26;0.80;;;0.60;;
31994;SDS011;51311;50.870;7.048;2022-08-01T13:41:26;1.20;;;0.60;;
31994;SDS011;51311;50.870;7.048;2022-08-01T13:45:26;0.90;;;0.50;;
31994;SDS011;51311;50.870;7.048;2022-08-01T13:49:26;1.20;;;0.60;;
31994;SDS011;51311;50.870;7.048;2022-08-01T13:53:26;0.80;;;0.40;;
31994;SDS011;51311;50.870;7.048;2022-08-01T13:57:27;0.70;;;0.40;;
31994;SDS011;51311;50.870;7.048;2022-08-01T14:01:26;1.00;;;0.60;;
31994;SDS011;51311;50.870;7.048;2022-08-01T14:05:27;0.70;;;0.40;;
31994;SDS011;51311;50.870;7.048;2022-08-01T14:09:27;1.00;;;0.50;;
31994;SDS011;51311;50.870;7.048;2022-08-01T14:13:27;0.80;;;0.40;;
31994;SDS011;51311;50.870;7.048;2022-08-01T14:17:27;0.60;;;0.40;;
31994;SDS011;51311;50.870;7.048;2022-08-01T14:21:27;1.30;;;0.70;;
31994;SDS011;51311;50.870;7.048;2022-08-01T14:25:27;0.60;;;0.40;;
31994;SDS011;51311;50.870;7.048;2022-08-01T14:29:28;0.80;;;0.60;;
31994;SDS011;51311;50.870;7.048;2022-08-01T14:33:28;1.10;;;0.50;;
31994;SDS011;51311;50.870;7.048;2022-08-01T14:37:28;0.60;;;0.30;;
31994;SDS011;51311;50.870;7.048;2022-08-01T14:41:28;0.70;;;0.30;;
31994;SDS011;51311;50.870;7.048;2022-08-01T14:45:28;0.60;;;0.40;;
31994;SDS011;51311;50.870;7.048;2022-08-01T14:49:29;1.00;;;0.60;;
31994;SDS011;51311;50.870;7.048;2022-08-01T14:53:29;0.70;;;0.50;;
31994;SDS011;51311;50.870;7.048;2022-08-01T14:57:29;0.80;;;0.50;;
31994;SDS011;51311;50.870;7.048;2022-08-01T15:01:29;0.70;;;0.30;;
31994;SDS011;51311;50.870;7.048;2022-08-01T15:05:29;0.30;;;0.30;;
31994;SDS011;51311;50.870;7.048;2022-08-01T15:09:29;0.60;;;0.50;;
31994;SDS011;51311;50.870;7.048;2022-08-01T15:13:29;0.60;;;0.30;;
31994;SDS011;51311;50.870;7.048;2022-08-01T15:17:30;0.60;;;0.40;;
31994;SDS011;51311;50.870;7.048;2022-08-01T15:21:30;0.60;;;0.40;;
31994;SDS011;51311;50.870;7.048;2022-08-01T15:25:30;0.90;;;0.50;;
31994;SDS011;51311;50.870;7.048;2022-08-01T15:29:30;0.80;;;0.40;;
31994;SDS011;51311;50.870;7.048;2022-08-01T15:33:30;0.60;;;0.40;;
31994;SDS011;51311;50.870;7.048;2022-08-01T15:41:31;0.50;;;0.40;;
31994;SDS011;51311;50.870;7.048;2022-08-01T15:45:31;1.30;;;0.50;;
31994;SDS011;51311;50.870;7.048;2022-08-01T15:49:31;0.70;;;0.40;;
31994;SDS011;51311;50.870;7.048;2022-08-01T15:53:31;0.50;;;0.30;;
31994;SDS011;51311;50.870;7.048;2022-08-01T15:57:31;0.60;;;0.40;;
31994;SDS011;51311;50.870;7.048;2022-08-01T16:01:31;0.70;;;0.40;;
31994;SDS011;51311;50.870;7.048;2022-08-01T16:05:31;0.90;;;0.40;;
31994;SDS011;51311;50.870;7.048;2022-08-01T16:09:32;0.40;;;0.30;;
31994;SDS011;51311;50.870;7.048;2022-08-01T16:13:32;0.50;;;0.40;;
31994;SDS011;51311;50.870;7.048;2022-08-01T16:17:32;0.60;;;0.40;;
31994;SDS011;51311;50.870;7.048;2022-08-01T16:21:32;1.00;;;0.40;;
31994;SDS011;51311;50.870;7.048;2022-08-01T16:25:32;0.60;;;0.40;;
31994;SDS011;51311;50.870;7.048;2022-08-01T16:29:32;0.40;;;0.30;;
31994;SDS011;51311;50.870;7.048;2022-08-01T16:33:33;0.80;;;0.30;;
31994;SDS011;51311;50.870;7.048;2022-08-01T16:37:33;0.40;;;0.30;;
31994;SDS011;51311;50.870;7.048;2022-08-01T16:41:33;0.80;;;0.40;;
31994;SDS011;51311;50.870;7.048;2022-08-01T16:45:33;0.70;;;0.40;;
31994;SDS011;51311;50.870;7.048;2022-08-01T16:49:33;0.30;;;0.10;;
31994;SDS011;51311;50.870;7.048;2022-08-01T16:53:33;0.70;;;0.40;;
31994;SDS011;51311;50.870;7.048;2022-08-01T16:57:34;0.60;;;0.40;;
31994;SDS011;51311;50.870;7.048;2022-08-01T17:01:34;0.80;;;0.40;;
31994;SDS011;51311;50.870;7.048;2022-08-01T17:05:34;0.30;;;0.30;;
31994;SDS011;51311;50.870;7.048;2022-08-01T17:09:34;0.50;;;0.30;;
31994;SDS011;51311;50.870;7.048;2022-08-01T17:13:34;0.40;;;0.30;;
31994;SDS011;51311;50.870;7.048;2022-08-01T17:17:34;0.60;;;0.40;;
31994;SDS011;51311;50.870;7.048;2022-08-01T17:21:35;0.50;;;0.30;;
31994;SDS011;51311;50.870;7.048;2022-08-01T17:25:35;0.90;;;0.40;;
31994;SDS011;51311;50.870;7.048;2022-08-01T17:29:35;0.60;;;0.30;;
31994;SDS011;51311;50.870;7.048;2022-08-01T17:33:35;0.40;;;0.30;;
31994;SDS011;51311;50.870;7.048;2022-08-01T17:37:35;0.50;;;0.30;;
31994;SDS011;51311;50.870;7.048;2022-08-01T17:41:35;0.30;;;0.20;;
31994;SDS011;51311;50.870;7.048;2022-08-01T17:45:36;0.40;;;0.30;;
31994;SDS011;51311;50.870;7.048;2022-08-01T17:49:36;0.90;;;0.50;;
31994;SDS011;51311;50.870;7.048;2022-08-01T17:53:36;0.80;;;0.50;;
31994;SDS011;51311;50.870;7.048;2022-08-01T17:57:36;0.70;;;0.40;;
31994;SDS011;51311;50.870;7.048;2022-08-01T18:05:36;0.40;;;0.30;;
31994;SDS011;51311;50.870;7.048;2022-08-01T18:09:37;0.40;;;0.30;;
31994;SDS011;51311;50.870;7.048;2022-08-01T18:13:37;0.40;;;0.30;;
31994;SDS011;51311;50.870;7.048;2022-08-01T18:17:37;0.40;;;0.30;;
31994;SDS011;51311;50.870;7.048;2022-08-01T18:21:37;0.70;;;0.30;;
31994;SDS011;51311;50.870;7.048;2022-08-01T18:25:37;0.40;;;0.20;;
31994;SDS011;51311;50.870;7.048;2022-08-01T18:29:37;0.50;;;0.30;;
31994;SDS011;51311;50.870;7.048;2022-08-01T18:33:38;0.60;;;0.40;;
31994;SDS011;51311;50.870;7.048;2022-08-01T18:41:38;0.60;;;0.40;;
31994;SDS011;51311;50.870;7.048;2022-08-01T18:45:38;0.80;;;0.30;;
31994;SDS011;51311;50.870;7.048;2022-08-01T18:49:38;0.40;;;0.30;;
31994;SDS011;51311;50.870;7.048;2022-08-01T18:53:38;0.70;;;0.30;;
31994;SDS011;51311;50.870;7.048;2022-08-01T18:57:38;0.80;;;0.40;;
31994;SDS011;51311;50.870;7.048;2022-08-01T19:01:39;0.40;;;0.30;;
31994;SDS011;51311;50.870;7.048;2022-08-01T19:05:39;0.70;;;0.50;;
31994;SDS011;51311;50.870;7.048;2022-08-01T19:09:39;0.40;;;0.20;;
31994;SDS011;51311;50.870;7.048;2022-08-01T19:13:39;0.30;;;0.30;;
31994;SDS011;51311;50.870;7.048;2022-08-01T19:17:39;0.50;;;0.40;;
31994;SDS011;51311;50.870;7.048;2022-08-01T19:21:39;0.80;;;0.40;;
31994;SDS011;51311;50.870;7.048;2022-08-01T19:25:40;0.50;;;0.30;;
31994;SDS011;51311;50.870;7.048;2022-08-01T19:29:40;0.30;;;0.20;;
31994;SDS011;51311;50.870;7.048;2022-08-01T19:33:40;0.50;;;0.40;;
31994;SDS011;51311;50.870;7.048;2022-08-01T19:37:40;0.50;;;0.30;;
31994;SDS011;51311;50.870;7.048;2022-08-01T19:41:41;0.30;;;0.30;;
31994;SDS011;51311;50.870;7.048;2022-08-01T19:45:40;1.30;;;0.50;;
31994;SDS011;51311;50.870;7.048;2022-08-01T19:49:41;0.40;;;0.30;;
31994;SDS011;51311;50.870;7.048;2022-08-01T19:53:42;0.70;;;0.40;;
31994;SDS011;51311;50.870;7.048;2022-08-01T19:57:41;0.50;;;0.30;;
31994;SDS011;51311;50.870;7.048;2022-08-01T20:01:41;0.50;;;0.30;;
31994;SDS011;51311;50.870;7.048;2022-08-01T20:05:41;0.60;;;0.30;;
31994;SDS011;51311;50.870;7.048;2022-08-01T20:09:44;0.50;;;0.20;;
31994;SDS011;51311;50.870;7.048;2022-08-01T20:13:42;0.70;;;0.40;;
31994;SDS011;51311;50.870;7.048;2022-08-01T20:17:42;0.40;;;0.30;;
31994;SDS011;51311;50.870;7.048;2022-08-01T20:21:44;0.50;;;0.20;;
31994;SDS011;51311;50.870;7.048;2022-08-01T20:25:43;0.50;;;0.30;;
31994;SDS011;51311;50.870;7.048;2022-08-01T20:29:43;0.50;;;0.20;;
31994;SDS011;51311;50.870;7.048;2022-08-01T20:33:44;0.40;;;0.30;;
31994;SDS011;51311;50.870;7.048;2022-08-01T20:37:43;0.50;;;0.40;;
31994;SDS011;51311;50.870;7.048;2022-08-01T20:41:43;0.30;;;0.20;;
31994;SDS011;51311;50.870;7.048;2022-08-01T20:45:43;0.30;;;0.20;;
31994;SDS011;51311;50.870;7.048;2022-08-01T20:49:43;0.60;;;0.40;;
31994;SDS011;51311;50.870;7.048;2022-08-01T20:53:45;0.50;;;0.20;;
31994;SDS011;51311;50.870;7.048;2022-08-01T20:57:44;0.50;;;0.30;;
31994;SDS011;51311;50.870;7.048;2022-08-01T21:01:57;0.50;;;0.30;;
31994;SDS011;51311;50.870;7.048;2022-08-01T21:05:45;0.50;;;0.30;;
31994;SDS011;51311;50.870;7.048;2022-08-01T21:09:44;0.30;;;0.20;;
31994;SDS011;51311;50.870;7.048;2022-08-01T21:13:44;0.70;;;0.40;;
31994;SDS011;51311;50.870;7.048;2022-08-01T21:17:48;0.60;;;0.50;;
31994;SDS011;51311;50.870;7.048;2022-08-01T21:21:47;0.40;;;0.30;;
31994;SDS011;51311;50.870;7.048;2022-08-01T21:25:45;0.40;;;0.30;;
31994;SDS011;51311;50.870;7.048;2022-08-01T21:29:45;0.30;;;0.10;;
31994;SDS011;51311;50.870;7.048;2022-08-01T21:33:46;0.50;;;0.30;;
31994;SDS011;51311;50.870;7.048;2022-08-01T21:37:45;0.30;;;0.30;;
31994;SDS011;51311;50.870;7.048;2022-08-01T21:41:45;0.70;;;0.30;;
31994;SDS011;51311;50.870;7.048;2022-08-01T21:45:46;0.80;;;0.40;;
31994;SDS011;51311;50.870;7.048;2022-08-01T21:49:46;0.40;;;0.20;;
31994;SDS011;51311;50.870;7.048;2022-08-01T21:53:48;0.40;;;0.30;;
31994;SDS011;51311;50.870;7.048;2022-08-01T22:01:47;0.30;;;0.20;;
31994;SDS011;51311;50.870;7.048;2022-08-01T22:05:46;0.40;;;0.30;;
31994;SDS011;51311;50.870;7.048;2022-08-01T22:09:47;0.40;;;0.20;;
31994;SDS011;51311;50.870;7.048;2022-08-01T22:13:47;0.30;;;0.20;;
31994;SDS011;51311;50.870;7.048;2022-08-01T22:17:47;0.20;;;0.20;;
31994;SDS011;51311;50.870;7.048;2022-08-01T22:21:47;0.80;;;0.40;;
31994;SDS011;51311;50.870;7.048;2022-08-01T22:25:50;0.50;;;0.30;;
31994;SDS011;51311;50.870;7.048;2022-08-01T22:29:50;0.40;;;0.30;;
31994;SDS011;51311;50.870;7.048;2022-08-01T22:33:47;0.40;;;0.30;;
31994;SDS011;51311;50.870;7.048;2022-08-01T22:37:47;0.40;;;0.30;;
31994;SDS011;51311;50.870;7.048;2022-08-01T22:41:49;0.40;;;0.30;;
31994;SDS011;51311;50.870;7.048;2022-08-01T22:53:52;0.30;;;0.20;;
31994;SDS011;51311;50.870;7.048;2022-08-01T22:57:50;0.40;;;0.30;;
31994;SDS011;51311;50.870;7.048;2022-08-01T23:01:49;0.70;;;0.40;;
31994;SDS011;51311;50.870;7.048;2022-08-01T23:05:53;0.60;;;0.30;;
31994;SDS011;51311;50.870;7.048;2022-08-01T23:09:49;0.80;;;0.40;;
31994;SDS011;51311;50.870;7.048;2022-08-01T23:13:49;0.40;;;0.20;;
31994;SDS011;51311;50.870;7.048;2022-08-01T23:17:49;0.40;;;0.30;;
31994;SDS011;51311;50.870;7.048;2022-08-01T23:21:49;0.30;;;0.10;;
31994;SDS011;51311;50.870;7.048;2022-08-01T23:25:49;0.40;;;0.30;;
31994;SDS011;51311;50.870;7.048;2022-08-01T23:29:50;0.50;;;0.30;;
31994;SDS011;51311;50.870;7.048;2022-08-01T23:33:50;0.20;;;0.20;;
31994;SDS011;51311;50.870;7.048;2022-08-01T23:37:50;0.20;;;0.20;;
31994;SDS011;51311;50.870;7.048;2022-08-01T23:41:50;0.80;;;0.60;;
31994;SDS011;51311;50.870;7.048;2022-08-01T23:45:50;1.80;;;0.20;;
31994;SDS011;51311;50.870;7.048;2022-08-01T23:49:50;0.60;;;0.40;;
31994;SDS011;51311;50.870;7.048;2022-08-01T23:53:51;0.80;;;0.30;;
31994;SDS011;51311;50.870;7.048;2022-08-01T23:57:51;0.30;;;0.30;;
